sensor_id;sensor_type;location;lat;lon;timestamp;P1;durP1;ratioP1;P2;durP2;ratioP2
49890;SDS011;35780;55.568;37.492;2023-04-02T00:08:59;45.77;;;24.03;;
49890;SDS011;35780;55.568;37.492;2023-04-02T00:11:30;47.65;;;25.38;;
49890;SDS011;35780;55.568;37.492;2023-04-02T00:14:01;48.78;;;25.55;;
49890;SDS011;35780;55.568;37.492;2023-04-02T00:16:37;50.83;;;27.50;;
49890;SDS011;35780;55.568;37.492;2023-04-02T00:19:03;55.45;;;28.48;;
49890;SDS011;35780;55.568;37.492;2023-04-02T00:21:31;53.42;;;26.85;;
49890;SDS011;35780;55.568;37.492;2023-04-02T00:23:59;54.28;;;28.80;;
49890;SDS011;35780;55.568;37.492;2023-04-02T00:28:54;48.83;;;26.30;;
49890;SDS011;35780;55.568;37.492;2023-04-02T00:31:20;48.97;;;25.35;;
49890;SDS011;35780;55.568;37.492;2023-04-02T00:33:45;49.92;;;24.95;;
49890;SDS011;35780;55.568;37.492;2023-04-02T00:36:13;48.67;;;27.88;;
49890;SDS011;35780;55.568;37.492;2023-04-02T00:38:39;55.42;;;27.70;;
49890;SDS011;35780;55.568;37.492;2023-04-02T00:41:09;42.42;;;22.45;;
49890;SDS011;35780;55.568;37.492;2023-04-02T00:43:41;46.08;;;24.42;;
49890;SDS011;35780;55.568;37.492;2023-04-02T00:46:14;37.97;;;20.35;;
49890;SDS011;35780;55.568;37.492;2023-04-02T00:51:35;43.60;;;21.58;;
49890;SDS011;35780;55.568;37.492;2023-04-02T00:54:03;48.22;;;24.33;;
49890;SDS011;35780;55.568;37.492;2023-04-02T00:56:31;51.13;;;24.73;;
49890;SDS011;35780;55.568;37.492;2023-04-02T00:59:00;47.75;;;26.42;;
49890;SDS011;35780;55.568;37.492;2023-04-02T01:01:28;40.63;;;18.13;;
49890;SDS011;35780;55.568;37.492;2023-04-02T01:04:00;45.80;;;23.83;;
49890;SDS011;35780;55.568;37.492;2023-04-02T01:06:27;47.15;;;24.75;;
49890;SDS011;35780;55.568;37.492;2023-04-02T01:14:40;54.63;;;26.95;;
49890;SDS011;35780;55.568;37.492;2023-04-02T01:17:22;47.67;;;24.70;;
49890;SDS011;35780;55.568;37.492;2023-04-02T01:22:57;49.92;;;24.85;;
49890;SDS011;35780;55.568;37.492;2023-04-02T01:25:29;55.13;;;28.85;;
49890;SDS011;35780;55.568;37.492;2023-04-02T01:31:25;57.67;;;30.38;;
49890;SDS011;35780;55.568;37.492;2023-04-02T01:33:51;49.42;;;25.02;;
49890;SDS011;35780;55.568;37.492;2023-04-02T01:37:19;50.22;;;25.45;;
49890;SDS011;35780;55.568;37.492;2023-04-02T01:39:35;47.83;;;22.23;;
49890;SDS011;35780;55.568;37.492;2023-04-02T01:45:00;46.20;;;24.25;;
49890;SDS011;35780;55.568;37.492;2023-04-02T01:47:29;52.83;;;24.48;;
49890;SDS011;35780;55.568;37.492;2023-04-02T01:50:00;37.97;;;23.15;;
49890;SDS011;35780;55.568;37.492;2023-04-02T01:52:38;44.50;;;23.92;;
49890;SDS011;35780;55.568;37.492;2023-04-02T01:55:06;54.60;;;23.20;;
49890;SDS011;35780;55.568;37.492;2023-04-02T01:57:33;44.65;;;24.75;;
49890;SDS011;35780;55.568;37.492;2023-04-02T01:59:59;33.83;;;20.70;;
49890;SDS011;35780;55.568;37.492;2023-04-02T02:02:25;45.20;;;23.50;;
49890;SDS011;35780;55.568;37.492;2023-04-02T02:04:51;41.45;;;23.98;;
49890;SDS011;35780;55.568;37.492;2023-04-02T02:07:18;41.92;;;24.75;;
49890;SDS011;35780;55.568;37.492;2023-04-02T02:09:44;43.60;;;23.13;;
49890;SDS011;35780;55.568;37.492;2023-04-02T02:12:11;36.20;;;22.25;;
49890;SDS011;35780;55.568;37.492;2023-04-02T02:14:38;38.60;;;22.95;;
49890;SDS011;35780;55.568;37.492;2023-04-02T02:17:04;45.80;;;24.92;;
49890;SDS011;35780;55.568;37.492;2023-04-02T02:19:38;34.70;;;19.80;;
49890;SDS011;35780;55.568;37.492;2023-04-02T02:24:39;35.83;;;21.67;;
49890;SDS011;35780;55.568;37.492;2023-04-02T02:29:58;36.80;;;18.73;;
49890;SDS011;35780;55.568;37.492;2023-04-02T02:32:27;46.60;;;23.67;;
49890;SDS011;35780;55.568;37.492;2023-04-02T02:35:17;39.53;;;22.98;;
49890;SDS011;35780;55.568;37.492;2023-04-02T02:37:46;41.20;;;22.25;;
49890;SDS011;35780;55.568;37.492;2023-04-02T02:40:28;33.47;;;19.80;;
49890;SDS011;35780;55.568;37.492;2023-04-02T02:43:00;39.00;;;21.90;;
49890;SDS011;35780;55.568;37.492;2023-04-02T02:45:28;39.60;;;18.75;;
49890;SDS011;35780;55.568;37.492;2023-04-02T02:47:58;37.65;;;20.45;;
49890;SDS011;35780;55.568;37.492;2023-04-02T02:50:27;36.03;;;19.70;;
49890;SDS011;35780;55.568;37.492;2023-04-02T02:52:59;34.35;;;17.80;;
49890;SDS011;35780;55.568;37.492;2023-04-02T02:55:37;36.40;;;22.20;;
49890;SDS011;35780;55.568;37.492;2023-04-02T02:58:08;34.95;;;19.85;;
49890;SDS011;35780;55.568;37.492;2023-04-02T03:00:56;33.83;;;17.70;;
49890;SDS011;35780;55.568;37.492;2023-04-02T03:03:30;33.53;;;18.10;;
49890;SDS011;35780;55.568;37.492;2023-04-02T03:06:05;31.35;;;18.25;;
49890;SDS011;35780;55.568;37.492;2023-04-02T03:08:41;34.72;;;20.48;;
49890;SDS011;35780;55.568;37.492;2023-04-02T03:11:17;32.20;;;20.23;;
49890;SDS011;35780;55.568;37.492;2023-04-02T03:14:45;34.15;;;18.80;;
49890;SDS011;35780;55.568;37.492;2023-04-02T03:22:16;31.02;;;14.10;;
49890;SDS011;35780;55.568;37.492;2023-04-02T03:24:57;30.52;;;17.63;;
49890;SDS011;35780;55.568;37.492;2023-04-02T03:27:27;36.10;;;17.92;;
49890;SDS011;35780;55.568;37.492;2023-04-02T03:30:33;31.90;;;16.38;;
49890;SDS011;35780;55.568;37.492;2023-04-02T03:33:03;23.98;;;13.48;;
49890;SDS011;35780;55.568;37.492;2023-04-02T03:38:29;32.72;;;16.20;;
49890;SDS011;35780;55.568;37.492;2023-04-02T03:41:01;30.83;;;15.60;;
49890;SDS011;35780;55.568;37.492;2023-04-02T03:46:10;29.15;;;14.43;;
49890;SDS011;35780;55.568;37.492;2023-04-02T03:48:38;25.27;;;14.00;;
49890;SDS011;35780;55.568;37.492;2023-04-02T03:51:08;28.13;;;13.95;;
49890;SDS011;35780;55.568;37.492;2023-04-02T03:53:38;23.67;;;13.38;;
49890;SDS011;35780;55.568;37.492;2023-04-02T03:56:04;25.77;;;14.30;;
49890;SDS011;35780;55.568;37.492;2023-04-02T04:01:07;28.05;;;16.70;;
49890;SDS011;35780;55.568;37.492;2023-04-02T04:03:51;24.75;;;13.05;;
49890;SDS011;35780;55.568;37.492;2023-04-02T04:06:28;22.65;;;12.88;;
49890;SDS011;35780;55.568;37.492;2023-04-02T04:11:43;23.25;;;13.85;;
49890;SDS011;35780;55.568;37.492;2023-04-02T04:19:30;25.08;;;13.77;;
49890;SDS011;35780;55.568;37.492;2023-04-02T04:22:08;26.45;;;14.40;;
49890;SDS011;35780;55.568;37.492;2023-04-02T04:24:43;28.58;;;14.82;;
49890;SDS011;35780;55.568;37.492;2023-04-02T04:27:23;23.15;;;13.32;;
49890;SDS011;35780;55.568;37.492;2023-04-02T04:32:54;26.45;;;13.43;;
49890;SDS011;35780;55.568;37.492;2023-04-02T04:35:29;23.95;;;12.50;;
49890;SDS011;35780;55.568;37.492;2023-04-02T04:38:02;25.23;;;14.88;;
49890;SDS011;35780;55.568;37.492;2023-04-02T04:40:36;29.05;;;15.27;;
49890;SDS011;35780;55.568;37.492;2023-04-02T04:43:12;31.90;;;17.98;;
49890;SDS011;35780;55.568;37.492;2023-04-02T04:48:28;25.55;;;14.23;;
49890;SDS011;35780;55.568;37.492;2023-04-02T04:51:03;24.90;;;13.82;;
49890;SDS011;35780;55.568;37.492;2023-04-02T04:53:31;28.17;;;16.00;;
49890;SDS011;35780;55.568;37.492;2023-04-02T04:56:00;23.50;;;14.32;;
49890;SDS011;35780;55.568;37.492;2023-04-02T05:01:16;22.60;;;14.10;;
49890;SDS011;35780;55.568;37.492;2023-04-02T05:04:00;37.63;;;18.55;;
49890;SDS011;35780;55.568;37.492;2023-04-02T05:08:56;31.40;;;17.27;;
49890;SDS011;35780;55.568;37.492;2023-04-02T05:11:27;48.50;;;21.40;;
49890;SDS011;35780;55.568;37.492;2023-04-02T05:14:57;31.85;;;16.85;;
49890;SDS011;35780;55.568;37.492;2023-04-02T05:19:42;42.65;;;19.48;;
49890;SDS011;35780;55.568;37.492;2023-04-02T05:22:29;34.30;;;16.17;;
49890;SDS011;35780;55.568;37.492;2023-04-02T05:28:37;29.33;;;16.27;;
49890;SDS011;35780;55.568;37.492;2023-04-02T05:33:26;29.00;;;15.65;;
49890;SDS011;35780;55.568;37.492;2023-04-02T05:35:57;26.40;;;17.83;;
49890;SDS011;35780;55.568;37.492;2023-04-02T05:38:43;27.60;;;15.95;;
49890;SDS011;35780;55.568;37.492;2023-04-02T05:41:14;30.27;;;17.15;;
49890;SDS011;35780;55.568;37.492;2023-04-02T05:43:46;28.60;;;18.35;;
49890;SDS011;35780;55.568;37.492;2023-04-02T05:46:15;25.05;;;15.25;;
49890;SDS011;35780;55.568;37.492;2023-04-02T05:48:42;31.20;;;17.75;;
49890;SDS011;35780;55.568;37.492;2023-04-02T05:51:13;24.75;;;16.58;;
49890;SDS011;35780;55.568;37.492;2023-04-02T05:54:00;27.55;;;17.20;;
49890;SDS011;35780;55.568;37.492;2023-04-02T05:56:36;29.38;;;18.20;;
49890;SDS011;35780;55.568;37.492;2023-04-02T06:01:46;27.48;;;16.90;;
49890;SDS011;35780;55.568;37.492;2023-04-02T06:06:55;21.60;;;14.35;;
49890;SDS011;35780;55.568;37.492;2023-04-02T06:09:28;21.50;;;13.10;;
49890;SDS011;35780;55.568;37.492;2023-04-02T06:12:04;28.52;;;18.95;;
49890;SDS011;35780;55.568;37.492;2023-04-02T06:14:36;24.33;;;16.35;;
49890;SDS011;35780;55.568;37.492;2023-04-02T06:17:03;28.33;;;16.67;;
49890;SDS011;35780;55.568;37.492;2023-04-02T06:19:30;17.30;;;9.13;;
49890;SDS011;35780;55.568;37.492;2023-04-02T06:21:59;25.38;;;16.23;;
49890;SDS011;35780;55.568;37.492;2023-04-02T06:24:33;21.58;;;12.88;;
49890;SDS011;35780;55.568;37.492;2023-04-02T06:27:01;22.25;;;14.50;;
49890;SDS011;35780;55.568;37.492;2023-04-02T06:32:03;23.38;;;12.90;;
49890;SDS011;35780;55.568;37.492;2023-04-02T06:34:31;22.73;;;15.90;;
49890;SDS011;35780;55.568;37.492;2023-04-02T06:37:02;16.95;;;10.65;;
49890;SDS011;35780;55.568;37.492;2023-04-02T06:39:39;21.83;;;13.43;;
49890;SDS011;35780;55.568;37.492;2023-04-02T06:44:37;25.38;;;13.57;;
49890;SDS011;35780;55.568;37.492;2023-04-02T06:57:45;26.25;;;13.70;;
49890;SDS011;35780;55.568;37.492;2023-04-02T07:00:56;17.73;;;11.20;;
49890;SDS011;35780;55.568;37.492;2023-04-02T07:03:20;18.17;;;11.60;;
49890;SDS011;35780;55.568;37.492;2023-04-02T07:05:48;19.73;;;12.23;;
49890;SDS011;35780;55.568;37.492;2023-04-02T07:08:14;17.83;;;12.32;;
49890;SDS011;35780;55.568;37.492;2023-04-02T07:10:40;18.88;;;11.07;;
49890;SDS011;35780;55.568;37.492;2023-04-02T07:13:05;22.08;;;13.43;;
49890;SDS011;35780;55.568;37.492;2023-04-02T07:15:32;21.30;;;13.35;;
49890;SDS011;35780;55.568;37.492;2023-04-02T07:17:58;18.10;;;10.82;;
49890;SDS011;35780;55.568;37.492;2023-04-02T07:20:28;20.95;;;11.48;;
49890;SDS011;35780;55.568;37.492;2023-04-02T07:22:58;16.80;;;10.60;;
49890;SDS011;35780;55.568;37.492;2023-04-02T07:25:25;22.10;;;13.85;;
49890;SDS011;35780;55.568;37.492;2023-04-02T07:27:51;21.80;;;14.77;;
49890;SDS011;35780;55.568;37.492;2023-04-02T07:30:17;22.33;;;13.50;;
49890;SDS011;35780;55.568;37.492;2023-04-02T07:32:43;22.40;;;14.32;;
49890;SDS011;35780;55.568;37.492;2023-04-02T07:35:09;20.55;;;11.55;;
49890;SDS011;35780;55.568;37.492;2023-04-02T07:37:35;22.63;;;14.60;;
49890;SDS011;35780;55.568;37.492;2023-04-02T07:40:02;23.10;;;15.70;;
49890;SDS011;35780;55.568;37.492;2023-04-02T07:42:33;19.80;;;12.93;;
49890;SDS011;35780;55.568;37.492;2023-04-02T07:44:58;20.65;;;12.30;;
49890;SDS011;35780;55.568;37.492;2023-04-02T07:47:24;25.33;;;15.93;;
49890;SDS011;35780;55.568;37.492;2023-04-02T07:49:50;24.95;;;13.70;;
49890;SDS011;35780;55.568;37.492;2023-04-02T07:52:18;25.25;;;14.80;;
49890;SDS011;35780;55.568;37.492;2023-04-02T07:54:45;22.73;;;12.73;;
49890;SDS011;35780;55.568;37.492;2023-04-02T07:57:11;23.92;;;14.57;;
49890;SDS011;35780;55.568;37.492;2023-04-02T07:59:37;20.63;;;12.50;;
49890;SDS011;35780;55.568;37.492;2023-04-02T08:02:02;23.63;;;13.93;;
49890;SDS011;35780;55.568;37.492;2023-04-02T08:04:28;27.48;;;16.45;;
49890;SDS011;35780;55.568;37.492;2023-04-02T08:06:54;25.20;;;16.33;;
49890;SDS011;35780;55.568;37.492;2023-04-02T08:09:19;24.15;;;16.35;;
49890;SDS011;35780;55.568;37.492;2023-04-02T08:11:45;25.55;;;14.68;;
49890;SDS011;35780;55.568;37.492;2023-04-02T08:14:11;24.73;;;15.18;;
49890;SDS011;35780;55.568;37.492;2023-04-02T08:16:50;24.85;;;15.63;;
49890;SDS011;35780;55.568;37.492;2023-04-02T08:19:20;24.42;;;16.13;;
49890;SDS011;35780;55.568;37.492;2023-04-02T08:21:46;24.73;;;15.95;;
49890;SDS011;35780;55.568;37.492;2023-04-02T08:24:16;24.08;;;15.98;;
49890;SDS011;35780;55.568;37.492;2023-04-02T08:26:46;26.90;;;14.75;;
49890;SDS011;35780;55.568;37.492;2023-04-02T08:29:13;25.90;;;17.73;;
49890;SDS011;35780;55.568;37.492;2023-04-02T08:31:39;26.40;;;15.98;;
49890;SDS011;35780;55.568;37.492;2023-04-02T08:34:04;24.58;;;15.52;;
49890;SDS011;35780;55.568;37.492;2023-04-02T08:36:34;24.33;;;15.52;;
49890;SDS011;35780;55.568;37.492;2023-04-02T08:39:01;25.92;;;16.85;;
49890;SDS011;35780;55.568;37.492;2023-04-02T08:41:28;25.77;;;15.98;;
49890;SDS011;35780;55.568;37.492;2023-04-02T08:46:53;28.70;;;17.48;;
49890;SDS011;35780;55.568;37.492;2023-04-02T08:49:48;25.35;;;16.08;;
49890;SDS011;35780;55.568;37.492;2023-04-02T08:52:23;30.38;;;16.80;;
49890;SDS011;35780;55.568;37.492;2023-04-02T08:54:50;22.30;;;15.67;;
49890;SDS011;35780;55.568;37.492;2023-04-02T08:59:43;21.58;;;13.63;;
49890;SDS011;35780;55.568;37.492;2023-04-02T09:02:19;27.55;;;16.42;;
49890;SDS011;35780;55.568;37.492;2023-04-02T09:04:45;23.83;;;15.30;;
49890;SDS011;35780;55.568;37.492;2023-04-02T09:07:12;26.25;;;15.45;;
49890;SDS011;35780;55.568;37.492;2023-04-02T09:09:38;24.75;;;16.67;;
49890;SDS011;35780;55.568;37.492;2023-04-02T09:12:04;23.85;;;15.48;;
49890;SDS011;35780;55.568;37.492;2023-04-02T09:14:40;23.88;;;15.10;;
49890;SDS011;35780;55.568;37.492;2023-04-02T09:17:18;23.17;;;15.07;;
49890;SDS011;35780;55.568;37.492;2023-04-02T09:20:32;28.85;;;16.92;;
49890;SDS011;35780;55.568;37.492;2023-04-02T09:22:43;24.50;;;14.65;;
49890;SDS011;35780;55.568;37.492;2023-04-02T09:25:17;22.75;;;13.32;;
49890;SDS011;35780;55.568;37.492;2023-04-02T09:27:48;25.67;;;14.85;;
49890;SDS011;35780;55.568;37.492;2023-04-02T09:32:56;20.60;;;13.50;;
49890;SDS011;35780;55.568;37.492;2023-04-02T09:35:48;25.42;;;14.35;;
49890;SDS011;35780;55.568;37.492;2023-04-02T09:43:27;21.35;;;13.77;;
49890;SDS011;35780;55.568;37.492;2023-04-02T09:46:04;18.48;;;13.02;;
49890;SDS011;35780;55.568;37.492;2023-04-02T09:48:43;21.23;;;12.52;;
49890;SDS011;35780;55.568;37.492;2023-04-02T09:53:46;19.92;;;12.75;;
49890;SDS011;35780;55.568;37.492;2023-04-02T09:56:14;18.73;;;11.48;;
49890;SDS011;35780;55.568;37.492;2023-04-02T09:58:45;20.38;;;12.90;;
49890;SDS011;35780;55.568;37.492;2023-04-02T10:01:36;18.88;;;10.50;;
49890;SDS011;35780;55.568;37.492;2023-04-02T10:07:32;15.27;;;9.95;;
49890;SDS011;35780;55.568;37.492;2023-04-02T10:12:49;19.05;;;13.48;;
49890;SDS011;35780;55.568;37.492;2023-04-02T10:15:32;20.27;;;13.85;;
49890;SDS011;35780;55.568;37.492;2023-04-02T10:18:06;19.58;;;14.02;;
49890;SDS011;35780;55.568;37.492;2023-04-02T10:20:36;22.02;;;13.95;;
49890;SDS011;35780;55.568;37.492;2023-04-02T10:23:04;21.95;;;12.63;;
49890;SDS011;35780;55.568;37.492;2023-04-02T10:25:31;20.95;;;13.32;;
49890;SDS011;35780;55.568;37.492;2023-04-02T10:28:09;20.02;;;12.30;;
49890;SDS011;35780;55.568;37.492;2023-04-02T10:30:53;21.10;;;13.13;;
49890;SDS011;35780;55.568;37.492;2023-04-02T10:33:25;16.40;;;10.73;;
49890;SDS011;35780;55.568;37.492;2023-04-02T10:49:15;22.80;;;13.88;;
49890;SDS011;35780;55.568;37.492;2023-04-02T10:54:29;17.88;;;10.30;;
49890;SDS011;35780;55.568;37.492;2023-04-02T10:57:45;18.65;;;9.25;;
49890;SDS011;35780;55.568;37.492;2023-04-02T10:59:47;23.65;;;12.82;;
49890;SDS011;35780;55.568;37.492;2023-04-02T11:04:52;17.58;;;11.88;;
49890;SDS011;35780;55.568;37.492;2023-04-02T11:07:19;27.00;;;12.63;;
49890;SDS011;35780;55.568;37.492;2023-04-02T11:09:47;15.18;;;10.15;;
49890;SDS011;35780;55.568;37.492;2023-04-02T11:12:20;32.38;;;13.57;;
49890;SDS011;35780;55.568;37.492;2023-04-02T11:14:49;17.00;;;10.57;;
49890;SDS011;35780;55.568;37.492;2023-04-02T11:17:15;20.77;;;12.02;;
49890;SDS011;35780;55.568;37.492;2023-04-02T11:19:43;20.73;;;10.85;;
49890;SDS011;35780;55.568;37.492;2023-04-02T11:22:15;19.75;;;11.82;;
49890;SDS011;35780;55.568;37.492;2023-04-02T11:24:50;16.48;;;10.73;;
49890;SDS011;35780;55.568;37.492;2023-04-02T11:30:04;18.40;;;10.75;;
49890;SDS011;35780;55.568;37.492;2023-04-02T11:32:32;18.70;;;10.65;;
49890;SDS011;35780;55.568;37.492;2023-04-02T11:35:25;28.20;;;10.73;;
49890;SDS011;35780;55.568;37.492;2023-04-02T11:38:00;21.75;;;10.52;;
49890;SDS011;35780;55.568;37.492;2023-04-02T11:40:44;17.35;;;10.75;;
49890;SDS011;35780;55.568;37.492;2023-04-02T11:46:00;22.65;;;11.68;;
49890;SDS011;35780;55.568;37.492;2023-04-02T11:48:29;23.17;;;12.35;;
49890;SDS011;35780;55.568;37.492;2023-04-02T11:50:57;21.85;;;11.52;;
49890;SDS011;35780;55.568;37.492;2023-04-02T11:53:27;21.13;;;11.02;;
49890;SDS011;35780;55.568;37.492;2023-04-02T12:07:17;20.10;;;10.77;;
49890;SDS011;35780;55.568;37.492;2023-04-02T12:09:59;25.65;;;11.82;;
49890;SDS011;35780;55.568;37.492;2023-04-02T12:12:36;18.27;;;10.60;;
49890;SDS011;35780;55.568;37.492;2023-04-02T12:15:03;23.83;;;11.68;;
49890;SDS011;35780;55.568;37.492;2023-04-02T12:17:36;20.60;;;13.00;;
49890;SDS011;35780;55.568;37.492;2023-04-02T12:22:33;20.92;;;11.52;;
49890;SDS011;35780;55.568;37.492;2023-04-02T12:25:02;20.70;;;11.50;;
49890;SDS011;35780;55.568;37.492;2023-04-02T12:27:42;24.52;;;9.75;;
49890;SDS011;35780;55.568;37.492;2023-04-02T12:30:12;22.23;;;10.95;;
49890;SDS011;35780;55.568;37.492;2023-04-02T12:32:38;21.10;;;11.48;;
49890;SDS011;35780;55.568;37.492;2023-04-02T12:35:04;20.98;;;11.70;;
49890;SDS011;35780;55.568;37.492;2023-04-02T12:37:30;18.95;;;11.38;;
49890;SDS011;35780;55.568;37.492;2023-04-02T12:40:00;21.33;;;10.82;;
49890;SDS011;35780;55.568;37.492;2023-04-02T12:45:04;21.80;;;9.95;;
49890;SDS011;35780;55.568;37.492;2023-04-02T12:47:31;22.65;;;10.05;;
49890;SDS011;35780;55.568;37.492;2023-04-02T12:49:57;18.02;;;11.60;;
49890;SDS011;35780;55.568;37.492;2023-04-02T12:52:24;19.00;;;8.90;;
49890;SDS011;35780;55.568;37.492;2023-04-02T12:54:57;20.08;;;11.45;;
49890;SDS011;35780;55.568;37.492;2023-04-02T12:59:50;24.05;;;12.23;;
49890;SDS011;35780;55.568;37.492;2023-04-02T13:02:22;18.23;;;10.27;;
49890;SDS011;35780;55.568;37.492;2023-04-02T13:04:49;17.35;;;9.98;;
49890;SDS011;35780;55.568;37.492;2023-04-02T13:07:17;17.50;;;11.05;;
49890;SDS011;35780;55.568;37.492;2023-04-02T13:09:45;21.20;;;11.65;;
49890;SDS011;35780;55.568;37.492;2023-04-02T13:15:01;23.63;;;10.40;;
49890;SDS011;35780;55.568;37.492;2023-04-02T13:17:40;23.85;;;11.60;;
49890;SDS011;35780;55.568;37.492;2023-04-02T13:20:53;17.02;;;9.82;;
49890;SDS011;35780;55.568;37.492;2023-04-02T13:22:58;15.75;;;7.85;;
49890;SDS011;35780;55.568;37.492;2023-04-02T13:25:31;18.67;;;9.15;;
49890;SDS011;35780;55.568;37.492;2023-04-02T13:28:00;16.90;;;9.15;;
49890;SDS011;35780;55.568;37.492;2023-04-02T13:30:26;20.98;;;10.75;;
49890;SDS011;35780;55.568;37.492;2023-04-02T13:32:53;20.08;;;9.02;;
49890;SDS011;35780;55.568;37.492;2023-04-02T13:35:19;19.35;;;9.13;;
49890;SDS011;35780;55.568;37.492;2023-04-02T13:37:46;16.20;;;8.25;;
49890;SDS011;35780;55.568;37.492;2023-04-02T13:40:15;16.08;;;9.30;;
49890;SDS011;35780;55.568;37.492;2023-04-02T13:42:43;15.70;;;9.32;;
49890;SDS011;35780;55.568;37.492;2023-04-02T13:45:25;15.40;;;9.20;;
49890;SDS011;35780;55.568;37.492;2023-04-02T13:47:52;22.83;;;9.10;;
49890;SDS011;35780;55.568;37.492;2023-04-02T13:50:20;18.08;;;9.95;;
49890;SDS011;35780;55.568;37.492;2023-04-02T13:52:50;21.80;;;10.63;;
49890;SDS011;35780;55.568;37.492;2023-04-02T13:55:16;21.27;;;9.82;;
49890;SDS011;35780;55.568;37.492;2023-04-02T13:57:44;15.13;;;8.90;;
49890;SDS011;35780;55.568;37.492;2023-04-02T14:00:10;19.30;;;9.50;;
49890;SDS011;35780;55.568;37.492;2023-04-02T14:02:38;17.50;;;9.00;;
49890;SDS011;35780;55.568;37.492;2023-04-02T14:29:29;15.43;;;8.77;;
49890;SDS011;35780;55.568;37.492;2023-04-02T14:32:04;21.90;;;9.05;;
49890;SDS011;35780;55.568;37.492;2023-04-02T14:34:41;14.05;;;8.27;;
49890;SDS011;35780;55.568;37.492;2023-04-02T14:42:49;17.02;;;9.30;;
49890;SDS011;35780;55.568;37.492;2023-04-02T14:47:44;22.50;;;9.30;;
49890;SDS011;35780;55.568;37.492;2023-04-02T14:50:15;22.10;;;10.00;;
49890;SDS011;35780;55.568;37.492;2023-04-02T14:52:43;21.83;;;9.50;;
49890;SDS011;35780;55.568;37.492;2023-04-02T14:55:13;20.67;;;10.15;;
49890;SDS011;35780;55.568;37.492;2023-04-02T14:58:03;19.75;;;10.65;;
49890;SDS011;35780;55.568;37.492;2023-04-02T15:05:44;22.58;;;10.23;;
49890;SDS011;35780;55.568;37.492;2023-04-02T15:08:18;17.98;;;9.48;;
49890;SDS011;35780;55.568;37.492;2023-04-02T15:10:55;22.45;;;10.63;;
49890;SDS011;35780;55.568;37.492;2023-04-02T15:13:32;23.85;;;9.60;;
49890;SDS011;35780;55.568;37.492;2023-04-02T15:16:04;25.80;;;10.98;;
49890;SDS011;35780;55.568;37.492;2023-04-02T15:18:33;18.38;;;9.73;;
49890;SDS011;35780;55.568;37.492;2023-04-02T15:26:14;18.42;;;9.82;;
49890;SDS011;35780;55.568;37.492;2023-04-02T15:28:47;18.40;;;8.93;;
49890;SDS011;35780;55.568;37.492;2023-04-02T15:31:17;20.60;;;9.37;;
49890;SDS011;35780;55.568;37.492;2023-04-02T15:33:51;20.17;;;7.95;;
49890;SDS011;35780;55.568;37.492;2023-04-02T15:41:35;17.67;;;9.50;;
49890;SDS011;35780;55.568;37.492;2023-04-02T15:44:07;17.00;;;8.82;;
49890;SDS011;35780;55.568;37.492;2023-04-02T16:00:28;9.70;;;5.75;;
49890;SDS011;35780;55.568;37.492;2023-04-02T16:08:27;15.18;;;5.95;;
49890;SDS011;35780;55.568;37.492;2023-04-02T16:10:57;10.48;;;6.32;;
49890;SDS011;35780;55.568;37.492;2023-04-02T16:13:33;9.30;;;5.18;;
49890;SDS011;35780;55.568;37.492;2023-04-02T16:16:02;13.73;;;5.40;;
49890;SDS011;35780;55.568;37.492;2023-04-02T16:21:20;7.88;;;5.38;;
49890;SDS011;35780;55.568;37.492;2023-04-02T16:23:47;14.18;;;6.18;;
49890;SDS011;35780;55.568;37.492;2023-04-02T16:32:27;13.95;;;7.63;;
49890;SDS011;35780;55.568;37.492;2023-04-02T16:34:30;9.00;;;5.82;;
49890;SDS011;35780;55.568;37.492;2023-04-02T16:40:15;14.02;;;8.07;;
49890;SDS011;35780;55.568;37.492;2023-04-02T16:43:08;8.88;;;6.18;;
49890;SDS011;35780;55.568;37.492;2023-04-02T16:51:23;13.48;;;6.00;;
49890;SDS011;35780;55.568;37.492;2023-04-02T16:53:56;12.40;;;6.75;;
49890;SDS011;35780;55.568;37.492;2023-04-02T17:04:23;9.38;;;5.40;;
49890;SDS011;35780;55.568;37.492;2023-04-02T17:10:19;10.73;;;6.25;;
49890;SDS011;35780;55.568;37.492;2023-04-02T17:12:55;11.85;;;6.22;;
49890;SDS011;35780;55.568;37.492;2023-04-02T17:18:18;14.02;;;7.35;;
49890;SDS011;35780;55.568;37.492;2023-04-02T17:20:46;15.80;;;7.97;;
49890;SDS011;35780;55.568;37.492;2023-04-02T17:23:12;13.68;;;7.72;;
49890;SDS011;35780;55.568;37.492;2023-04-02T17:25:49;15.15;;;8.82;;
49890;SDS011;35780;55.568;37.492;2023-04-02T17:28:19;14.88;;;8.85;;
49890;SDS011;35780;55.568;37.492;2023-04-02T17:30:51;21.15;;;9.55;;
49890;SDS011;35780;55.568;37.492;2023-04-02T17:33:19;18.33;;;9.23;;
49890;SDS011;35780;55.568;37.492;2023-04-02T17:52:49;22.13;;;9.98;;
49890;SDS011;35780;55.568;37.492;2023-04-02T17:58:07;16.92;;;8.82;;
49890;SDS011;35780;55.568;37.492;2023-04-02T18:03:37;19.27;;;9.23;;
49890;SDS011;35780;55.568;37.492;2023-04-02T18:06:17;12.90;;;7.60;;
49890;SDS011;35780;55.568;37.492;2023-04-02T18:17:29;13.65;;;6.72;;
49890;SDS011;35780;55.568;37.492;2023-04-02T18:22:45;13.30;;;6.10;;
49890;SDS011;35780;55.568;37.492;2023-04-02T18:39:18;10.57;;;5.97;;
49890;SDS011;35780;55.568;37.492;2023-04-02T18:41:57;9.25;;;5.70;;
49890;SDS011;35780;55.568;37.492;2023-04-02T18:47:33;23.95;;;7.00;;
49890;SDS011;35780;55.568;37.492;2023-04-02T18:52:49;12.32;;;7.13;;
49890;SDS011;35780;55.568;37.492;2023-04-02T18:55:19;12.90;;;6.88;;
49890;SDS011;35780;55.568;37.492;2023-04-02T18:57:47;12.70;;;7.05;;
49890;SDS011;35780;55.568;37.492;2023-04-02T19:00:28;10.93;;;6.30;;
49890;SDS011;35780;55.568;37.492;2023-04-02T19:03:02;14.38;;;6.45;;
49890;SDS011;35780;55.568;37.492;2023-04-02T19:11:18;15.77;;;8.65;;
49890;SDS011;35780;55.568;37.492;2023-04-02T19:13:52;14.50;;;8.50;;
49890;SDS011;35780;55.568;37.492;2023-04-02T19:19:20;15.20;;;9.00;;
49890;SDS011;35780;55.568;37.492;2023-04-02T19:43:54;15.65;;;7.93;;
49890;SDS011;35780;55.568;37.492;2023-04-02T19:46:21;27.90;;;11.63;;
49890;SDS011;35780;55.568;37.492;2023-04-02T19:49:04;20.55;;;9.00;;
49890;SDS011;35780;55.568;37.492;2023-04-02T19:51:32;37.97;;;17.15;;
49890;SDS011;35780;55.568;37.492;2023-04-02T19:53:57;24.27;;;11.88;;
49890;SDS011;35780;55.568;37.492;2023-04-02T19:56:23;18.08;;;8.32;;
49890;SDS011;35780;55.568;37.492;2023-04-02T19:58:49;17.73;;;8.30;;
49890;SDS011;35780;55.568;37.492;2023-04-02T20:01:15;25.70;;;13.73;;
49890;SDS011;35780;55.568;37.492;2023-04-02T20:03:41;16.25;;;9.48;;
49890;SDS011;35780;55.568;37.492;2023-04-02T20:06:06;14.48;;;8.63;;
49890;SDS011;35780;55.568;37.492;2023-04-02T20:08:32;17.77;;;9.20;;
49890;SDS011;35780;55.568;37.492;2023-04-02T20:11:00;16.45;;;8.60;;
49890;SDS011;35780;55.568;37.492;2023-04-02T20:13:26;12.55;;;7.13;;
49890;SDS011;35780;55.568;37.492;2023-04-02T20:15:51;10.88;;;6.55;;
49890;SDS011;35780;55.568;37.492;2023-04-02T20:18:17;14.27;;;6.85;;
49890;SDS011;35780;55.568;37.492;2023-04-02T20:20:44;18.48;;;7.70;;
49890;SDS011;35780;55.568;37.492;2023-04-02T20:23:11;13.65;;;6.90;;
49890;SDS011;35780;55.568;37.492;2023-04-02T20:25:36;14.80;;;7.10;;